createdAt,value
2019-06-27T00:00:26.365Z,25.40
2019-06-27T00:01:32.395Z,25.40
2019-06-27T00:02:37.544Z,25.30
2019-06-27T00:03:43.772Z,25.30
2019-06-27T00:04:48.960Z,25.30
2019-06-27T00:05:55.016Z,25.20
2019-06-27T00:07:00.844Z,25.20
2019-06-27T00:08:07.056Z,25.10
2019-06-27T00:09:12.569Z,25.10
2019-06-27T00:10:19.902Z,25.10
2019-06-27T00:11:25.385Z,25.10
2019-06-27T00:12:31.791Z,25.00
2019-06-27T00:13:37.902Z,25.00
2019-06-27T00:14:44.132Z,24.90
2019-06-27T00:15:49.526Z,24.90
2019-06-27T00:16:55.802Z,24.90
2019-06-27T00:18:00.970Z,24.80
2019-06-27T00:19:06.867Z,24.80
2019-06-27T00:20:12.058Z,24.70
2019-06-27T00:21:18.426Z,24.70
2019-06-27T00:22:23.850Z,24.60
2019-06-27T00:23:30.064Z,24.60
2019-06-27T00:24:35.120Z,24.60
2019-06-27T00:25:41.059Z,24.50
2019-06-27T00:26:56.521Z,24.50
2019-06-27T00:27:54.312Z,24.50
2019-06-27T00:28:59.793Z,24.40
2019-06-27T00:30:06.237Z,24.40
2019-06-27T00:31:12.300Z,24.40
2019-06-27T00:32:18.560Z,24.40
2019-06-27T00:33:23.785Z,24.30
2019-06-27T00:34:29.694Z,24.30
2019-06-27T00:35:35.065Z,24.30
2019-06-27T00:36:41.218Z,24.20
2019-06-27T00:37:47.075Z,24.20
2019-06-27T00:38:53.581Z,24.20
2019-06-27T00:39:58.767Z,24.20
2019-06-27T00:41:05.349Z,24.10
2019-06-27T00:42:11.259Z,24.10
2019-06-27T00:43:17.767Z,24.10
2019-06-27T00:44:23.073Z,24.10
2019-06-27T00:45:29.612Z,24.10
2019-06-27T00:46:35.792Z,24.10
2019-06-27T00:47:42.116Z,24.00
2019-06-27T00:48:48.239Z,24.00
2019-06-27T00:49:54.584Z,24.00
2019-06-27T00:51:00.128Z,24.00
2019-06-27T00:52:06.129Z,24.00
2019-06-27T00:53:11.545Z,24.00
2019-06-27T00:54:17.762Z,23.90
2019-06-27T00:55:23.112Z,23.90
2019-06-27T00:56:29.254Z,23.90
2019-06-27T00:57:34.456Z,23.90
2019-06-27T00:58:40.726Z,23.90
2019-06-27T00:59:45.871Z,23.90
2019-06-27T01:00:52.401Z,23.90
2019-06-27T01:01:59.747Z,23.90
2019-06-27T01:03:06.903Z,23.80
2019-06-27T01:04:13.842Z,23.80
2019-06-27T01:05:21.585Z,23.80
2019-06-27T01:06:27.682Z,23.80
2019-06-27T01:07:34.885Z,23.70
2019-06-27T01:08:41.151Z,23.70
2019-06-27T01:09:48.322Z,23.70
2019-06-27T01:10:54.419Z,23.70
2019-06-27T01:12:01.166Z,23.70
2019-06-27T01:13:07.349Z,23.60
2019-06-27T01:14:13.856Z,23.60
2019-06-27T01:15:19.667Z,23.60
2019-06-27T01:16:26.377Z,23.60
2019-06-27T01:17:31.808Z,23.50
2019-06-27T01:18:38.394Z,23.50
2019-06-27T01:19:43.949Z,23.50
2019-06-27T01:20:49.912Z,23.50
2019-06-27T01:21:55.422Z,23.40
2019-06-27T01:23:01.321Z,23.40
2019-06-27T01:24:06.571Z,23.40
2019-06-27T01:25:12.649Z,23.40
2019-06-27T01:26:18.047Z,23.40
2019-06-27T01:27:30.000Z,23.30
2019-06-27T01:28:31.073Z,23.30
2019-06-27T01:29:37.193Z,23.30
2019-06-27T01:30:43.050Z,23.30
2019-06-27T01:31:49.273Z,23.30
2019-06-27T01:32:54.482Z,23.20
2019-06-27T01:34:00.492Z,23.20
2019-06-27T01:35:06.387Z,23.20
2019-06-27T01:36:12.956Z,23.20
2019-06-27T01:37:18.108Z,23.10
2019-06-27T01:38:24.603Z,23.10
2019-06-27T01:39:30.542Z,23.10
2019-06-27T01:40:37.103Z,23.00
2019-06-27T01:41:42.503Z,23.00
2019-06-27T01:42:48.778Z,23.00
2019-06-27T01:43:54.394Z,23.00
2019-06-27T01:45:18.699Z,23.00
2019-06-27T01:46:24.179Z,23.00
2019-06-27T01:47:30.142Z,22.90
2019-06-27T01:48:35.924Z,22.90
2019-06-27T01:49:42.408Z,22.90
2019-06-27T01:50:48.136Z,22.90
2019-06-27T01:51:54.349Z,22.90
2019-06-27T01:52:59.491Z,22.90
2019-06-27T01:54:05.719Z,22.90
2019-06-27T01:55:11.187Z,22.80
2019-06-27T01:56:17.714Z,22.80
2019-06-27T01:57:23.254Z,22.90
2019-06-27T01:58:29.326Z,22.80
2019-06-27T01:59:34.845Z,22.80
2019-06-27T02:00:41.798Z,22.80
2019-06-27T02:01:48.058Z,22.80
2019-06-27T02:02:56.037Z,22.80
2019-06-27T02:04:01.525Z,22.70
2019-06-27T02:05:08.348Z,22.70
2019-06-27T02:06:13.616Z,22.70
2019-06-27T02:07:19.685Z,22.70
2019-06-27T02:08:25.140Z,22.70
2019-06-27T02:09:33.453Z,22.70
2019-06-27T02:10:38.385Z,22.70
2019-06-27T02:11:44.778Z,22.60
2019-06-27T02:12:50.302Z,22.60
2019-06-27T02:13:56.569Z,22.60
2019-06-27T02:15:02.108Z,22.60
2019-06-27T02:16:08.101Z,22.60
2019-06-27T02:17:13.507Z,22.50
2019-06-27T02:18:19.391Z,22.50
2019-06-27T02:19:24.808Z,22.50
2019-06-27T02:20:30.783Z,22.50
2019-06-27T02:21:36.377Z,22.50
2019-06-27T02:22:42.596Z,22.40
2019-06-27T02:23:48.386Z,22.40
2019-06-27T02:24:54.700Z,22.40
2019-06-27T02:25:59.915Z,22.40
2019-06-27T02:27:06.010Z,22.40
2019-06-27T02:28:11.507Z,22.40
2019-06-27T02:29:17.947Z,22.30
2019-06-27T02:30:37.952Z,22.30
2019-06-27T02:31:44.457Z,22.30
2019-06-27T02:32:50.274Z,22.30
2019-06-27T02:33:56.015Z,22.30
2019-06-27T02:35:01.619Z,22.20
2019-06-27T02:36:07.626Z,22.20
2019-06-27T02:37:13.039Z,22.20
2019-06-27T02:38:19.014Z,22.20
2019-06-27T02:39:24.259Z,22.20
2019-06-27T02:40:30.821Z,22.20
2019-06-27T02:41:36.431Z,22.20
2019-06-27T02:42:42.364Z,22.10
2019-06-27T02:43:48.007Z,22.10
2019-06-27T02:44:54.256Z,22.10
2019-06-27T02:45:59.920Z,22.10
2019-06-27T02:47:06.159Z,22.10
2019-06-27T02:48:11.530Z,22.10
2019-06-27T02:49:17.862Z,22.00
2019-06-27T02:50:23.085Z,22.00
2019-06-27T02:51:28.978Z,22.00
2019-06-27T02:52:34.763Z,22.00
2019-06-27T02:53:41.292Z,22.00
2019-06-27T02:54:47.079Z,22.00
2019-06-27T02:55:53.495Z,22.00
2019-06-27T02:56:58.703Z,21.90
2019-06-27T02:58:27.733Z,21.90
2019-06-27T02:59:12.448Z,21.90
2019-06-27T03:00:19.283Z,21.90
2019-06-27T03:01:24.969Z,21.90
2019-06-27T03:02:31.246Z,21.80
2019-06-27T03:03:37.138Z,21.80
2019-06-27T03:04:43.448Z,21.80
2019-06-27T03:05:48.791Z,21.80
2019-06-27T03:06:55.060Z,21.80
2019-06-27T03:08:00.626Z,21.70
2019-06-27T03:09:07.124Z,21.70
2019-06-27T03:10:12.908Z,21.70
2019-06-27T03:11:19.237Z,21.70
2019-06-27T03:12:24.684Z,21.70
2019-06-27T03:13:31.337Z,21.70
2019-06-27T03:14:36.606Z,21.70
2019-06-27T03:15:43.216Z,21.60
2019-06-27T03:16:48.709Z,21.60
2019-06-27T03:17:55.007Z,21.60
2019-06-27T03:19:00.407Z,21.60
2019-06-27T03:20:07.276Z,21.60
2019-06-27T03:21:12.712Z,21.60
2019-06-27T03:22:19.148Z,21.60
2019-06-27T03:23:24.745Z,21.60
2019-06-27T03:24:31.030Z,21.60
2019-06-27T03:25:36.488Z,21.60
2019-06-27T03:26:42.324Z,21.60
2019-06-27T03:27:47.513Z,21.50
2019-06-27T03:28:54.305Z,21.50
2019-06-27T03:29:59.731Z,21.50
2019-06-27T03:31:06.380Z,21.50
2019-06-27T03:32:11.884Z,21.50
2019-06-27T03:33:18.041Z,21.50
2019-06-27T03:34:23.136Z,21.50
2019-06-27T03:35:29.114Z,21.50
2019-06-27T03:36:34.956Z,21.50
2019-06-27T03:37:41.078Z,21.50
2019-06-27T03:38:46.063Z,21.50
2019-06-27T03:39:52.543Z,21.50
2019-06-27T03:40:58.415Z,21.50
2019-06-27T03:42:04.893Z,21.50
2019-06-27T03:43:10.963Z,21.50
2019-06-27T03:44:17.186Z,21.40
2019-06-27T03:45:22.581Z,21.40
2019-06-27T03:46:28.527Z,21.40
2019-06-27T03:47:33.697Z,21.40
2019-06-27T03:48:40.103Z,21.40
2019-06-27T03:49:45.299Z,21.40
2019-06-27T03:50:55.902Z,21.30
2019-06-27T03:51:58.348Z,21.30
2019-06-27T03:53:04.329Z,21.30
2019-06-27T03:54:09.431Z,21.30
2019-06-27T03:55:15.792Z,21.30
2019-06-27T03:56:21.523Z,21.30
2019-06-27T03:57:28.088Z,21.30
2019-06-27T03:58:33.646Z,21.30
2019-06-27T03:59:40.001Z,21.20
2019-06-27T04:00:45.121Z,21.20
2019-06-27T04:01:51.433Z,21.20
2019-06-27T04:02:56.673Z,21.20
2019-06-27T04:04:02.856Z,21.20
2019-06-27T04:05:09.761Z,21.20
2019-06-27T04:06:17.499Z,21.10
2019-06-27T04:07:22.555Z,21.10
2019-06-27T04:08:28.396Z,21.10
2019-06-27T04:09:33.505Z,21.10
2019-06-27T04:10:40.009Z,21.10
2019-06-27T04:11:45.873Z,21.10
2019-06-27T04:12:52.167Z,21.10
2019-06-27T04:13:57.599Z,21.10
2019-06-27T04:15:03.886Z,21.10
2019-06-27T04:16:09.129Z,21.10
2019-06-27T04:17:15.934Z,21.10
2019-06-27T04:18:21.262Z,21.00
2019-06-27T04:19:27.585Z,21.00
2019-06-27T04:20:33.106Z,21.00
2019-06-27T04:21:39.333Z,21.00
2019-06-27T04:22:44.699Z,21.00
2019-06-27T04:23:50.970Z,21.00
2019-06-27T04:24:56.397Z,21.00
2019-06-27T04:26:02.767Z,21.00
2019-06-27T04:27:08.605Z,21.00
2019-06-27T04:28:14.440Z,21.00
2019-06-27T04:29:32.752Z,21.00
2019-06-27T04:30:27.473Z,21.00
2019-06-27T04:31:32.662Z,21.00
2019-06-27T04:32:39.358Z,21.00
2019-06-27T04:33:45.058Z,21.00
2019-06-27T04:34:51.494Z,20.90
2019-06-27T04:35:56.605Z,20.90
2019-06-27T04:37:02.839Z,20.90
2019-06-27T04:38:09.020Z,20.90
2019-06-27T04:39:15.335Z,20.90
2019-06-27T04:40:20.412Z,20.90
2019-06-27T04:41:26.659Z,20.90
2019-06-27T04:42:32.081Z,20.80
2019-06-27T04:43:38.770Z,20.80
2019-06-27T04:44:44.350Z,20.80
2019-06-27T04:45:50.234Z,20.80
2019-06-27T04:46:55.369Z,20.80
2019-06-27T04:48:01.901Z,20.80
2019-06-27T04:49:13.008Z,20.80
2019-06-27T04:50:15.560Z,20.80
2019-06-27T04:51:21.474Z,20.80
2019-06-27T04:52:28.492Z,20.80
2019-06-27T04:53:33.590Z,20.70
2019-06-27T04:54:39.667Z,20.70
2019-06-27T04:55:44.684Z,20.70
2019-06-27T04:56:50.640Z,20.70
2019-06-27T04:57:56.071Z,20.70
2019-06-27T04:59:02.620Z,20.70
2019-06-27T05:00:07.979Z,20.70
2019-06-27T05:01:14.425Z,20.70
2019-06-27T05:02:19.590Z,20.70
2019-06-27T05:03:25.504Z,20.60
2019-06-27T05:04:30.945Z,20.70
2019-06-27T05:05:37.172Z,20.60
2019-06-27T05:06:42.187Z,20.60
2019-06-27T05:07:48.348Z,20.60
2019-06-27T05:08:53.853Z,20.60
2019-06-27T05:09:59.921Z,20.60
2019-06-27T05:11:05.047Z,20.60
2019-06-27T05:12:11.375Z,20.60
2019-06-27T05:13:16.668Z,20.60
2019-06-27T05:14:22.564Z,20.60
2019-06-27T05:15:28.212Z,20.60
2019-06-27T05:16:34.125Z,20.60
2019-06-27T05:17:39.527Z,20.60
2019-06-27T05:18:46.067Z,20.60
2019-06-27T05:19:51.545Z,20.60
2019-06-27T05:20:57.950Z,20.60
2019-06-27T05:22:03.077Z,20.60
2019-06-27T05:23:09.297Z,20.60
2019-06-27T05:24:14.419Z,20.60
2019-06-27T05:25:21.047Z,20.60
2019-06-27T05:26:26.348Z,20.60
2019-06-27T05:27:32.188Z,20.60
2019-06-27T05:28:37.660Z,20.60
2019-06-27T05:29:43.759Z,20.60
2019-06-27T05:30:51.398Z,20.60
2019-06-27T05:31:56.702Z,20.60
2019-06-27T05:33:02.227Z,20.60
2019-06-27T05:34:08.495Z,20.60
2019-06-27T05:35:13.623Z,20.60
2019-06-27T05:36:20.274Z,20.60
2019-06-27T05:37:25.691Z,20.60
2019-06-27T05:38:31.984Z,20.60
2019-06-27T05:39:37.422Z,20.60
2019-06-27T05:40:43.589Z,20.60
2019-06-27T05:41:50.619Z,20.60
2019-06-27T05:42:56.739Z,20.60
2019-06-27T05:44:02.216Z,20.60
2019-06-27T05:45:09.335Z,20.60
2019-06-27T05:46:14.871Z,20.60
2019-06-27T05:47:21.409Z,20.60
2019-06-27T05:48:26.522Z,20.70
2019-06-27T05:49:32.756Z,20.70
2019-06-27T05:50:38.138Z,20.70
2019-06-27T05:51:44.105Z,20.70
2019-06-27T05:52:49.061Z,20.60
2019-06-27T05:53:54.794Z,20.70
2019-06-27T05:55:00.237Z,20.70
2019-06-27T05:56:06.139Z,20.60
2019-06-27T05:57:11.947Z,20.60
2019-06-27T05:58:18.192Z,20.70
2019-06-27T05:59:23.923Z,20.70
2019-06-27T06:00:29.940Z,20.60
2019-06-27T06:01:35.119Z,20.70
2019-06-27T06:02:41.022Z,20.70
2019-06-27T06:03:46.148Z,20.70
2019-06-27T06:04:52.425Z,20.70
2019-06-27T06:05:57.927Z,20.70
2019-06-27T06:07:03.802Z,20.70
2019-06-27T06:08:09.289Z,20.70
2019-06-27T06:09:15.082Z,20.70
2019-06-27T06:10:20.643Z,20.70
2019-06-27T06:11:27.373Z,20.70
2019-06-27T06:12:32.320Z,20.70
2019-06-27T06:13:38.514Z,20.70
2019-06-27T06:14:43.898Z,20.70
2019-06-27T06:15:50.222Z,20.70
2019-06-27T06:16:55.425Z,20.70
2019-06-27T06:18:01.892Z,20.70
2019-06-27T06:19:07.313Z,20.70
2019-06-27T06:20:13.587Z,20.70
2019-06-27T06:21:18.901Z,20.70
2019-06-27T06:22:25.074Z,20.70
2019-06-27T06:23:30.468Z,20.70
2019-06-27T06:24:36.714Z,20.70
2019-06-27T06:25:41.818Z,20.70
2019-06-27T06:26:47.708Z,20.70
2019-06-27T06:27:53.399Z,20.70
2019-06-27T06:28:59.822Z,20.70
2019-06-27T06:30:05.625Z,20.70
2019-06-27T06:31:12.041Z,20.70
2019-06-27T06:32:17.343Z,20.70
2019-06-27T06:33:23.791Z,20.70
2019-06-27T06:34:29.337Z,20.70
2019-06-27T06:35:35.522Z,20.70
2019-06-27T06:36:41.256Z,20.70
2019-06-27T06:37:48.004Z,20.70
2019-06-27T06:38:52.975Z,20.70
2019-06-27T06:39:59.485Z,20.70
2019-06-27T06:41:04.589Z,20.80
2019-06-27T06:42:10.570Z,20.80
2019-06-27T06:43:16.757Z,20.80
2019-06-27T06:44:23.081Z,20.80
2019-06-27T06:45:28.210Z,20.80
2019-06-27T06:46:34.391Z,20.80
2019-06-27T06:47:40.065Z,20.80
2019-06-27T06:48:46.008Z,20.90
2019-06-27T06:49:51.347Z,20.90
2019-06-27T06:50:57.244Z,20.90
2019-06-27T06:52:02.841Z,20.90
2019-06-27T06:53:08.800Z,21.00
2019-06-27T06:54:13.967Z,21.00
2019-06-27T06:55:19.970Z,21.00
2019-06-27T06:56:25.081Z,21.00
2019-06-27T06:57:31.605Z,21.10
2019-06-27T06:58:37.017Z,21.10
2019-06-27T06:59:43.971Z,21.10
2019-06-27T07:01:00.813Z,21.20
2019-06-27T07:01:56.994Z,21.20
2019-06-27T07:03:02.575Z,21.30
2019-06-27T07:04:08.375Z,21.30
2019-06-27T07:05:13.791Z,21.30
2019-06-27T07:06:20.211Z,21.30
2019-06-27T07:07:25.290Z,21.40
2019-06-27T07:08:32.605Z,21.40
2019-06-27T07:09:37.969Z,21.50
2019-06-27T07:10:43.871Z,21.50
2019-06-27T07:11:49.425Z,21.50
2019-06-27T07:12:55.316Z,21.50
2019-06-27T07:14:00.402Z,21.60
2019-06-27T07:15:06.942Z,21.60
2019-06-27T07:16:12.630Z,21.60
2019-06-27T07:17:19.188Z,21.70
2019-06-27T07:18:24.530Z,21.70
2019-06-27T07:19:31.256Z,21.80
2019-06-27T07:20:36.724Z,21.80
2019-06-27T07:21:43.053Z,21.90
2019-06-27T07:22:48.573Z,21.90
2019-06-27T07:23:54.968Z,21.90
2019-06-27T07:24:59.985Z,21.90
2019-06-27T07:26:06.168Z,22.00
2019-06-27T07:27:11.626Z,22.10
2019-06-27T07:28:18.436Z,22.10
2019-06-27T07:29:24.381Z,22.10
2019-06-27T07:30:30.307Z,22.10
2019-06-27T07:31:35.486Z,22.20
2019-06-27T07:32:42.394Z,22.20
2019-06-27T07:33:47.846Z,22.30
2019-06-27T07:34:54.056Z,22.30
2019-06-27T07:35:59.669Z,22.40
2019-06-27T07:37:05.616Z,22.40
2019-06-27T07:38:11.386Z,22.40
2019-06-27T07:39:18.116Z,22.50
2019-06-27T07:40:23.268Z,22.50
2019-06-27T07:41:29.230Z,22.60
2019-06-27T07:42:34.741Z,22.60
2019-06-27T07:43:40.858Z,22.60
2019-06-27T07:44:46.304Z,22.70
2019-06-27T07:45:52.205Z,22.70
2019-06-27T07:46:58.049Z,22.80
2019-06-27T07:48:03.933Z,22.80
2019-06-27T07:49:09.386Z,22.80
2019-06-27T07:50:15.726Z,22.80
2019-06-27T07:51:21.147Z,22.90
2019-06-27T07:52:27.978Z,22.90
2019-06-27T07:53:33.622Z,23.00
2019-06-27T07:54:39.946Z,23.00
2019-06-27T07:55:45.463Z,23.00
2019-06-27T07:56:51.389Z,23.10
2019-06-27T07:57:57.120Z,23.10
2019-06-27T07:59:03.030Z,23.20
2019-06-27T08:00:08.962Z,23.20
2019-06-27T08:01:15.483Z,23.20
2019-06-27T08:02:20.879Z,23.30
2019-06-27T08:03:27.045Z,23.30
2019-06-27T08:04:32.483Z,23.30
2019-06-27T08:05:38.371Z,23.40
2019-06-27T08:06:43.829Z,23.40
2019-06-27T08:07:49.957Z,23.40
2019-06-27T08:08:55.603Z,23.50
2019-06-27T08:10:01.632Z,23.50
2019-06-27T08:11:06.794Z,23.50
2019-06-27T08:12:13.047Z,23.60
2019-06-27T08:13:18.805Z,23.70
2019-06-27T08:14:24.955Z,23.70
2019-06-27T08:15:30.130Z,23.70
2019-06-27T08:16:36.341Z,23.80
2019-06-27T08:17:42.049Z,23.80
2019-06-27T08:18:48.655Z,23.90
2019-06-27T08:19:53.739Z,23.90
2019-06-27T08:20:59.955Z,23.90
2019-06-27T08:22:05.242Z,24.00
2019-06-27T08:23:11.475Z,24.00
2019-06-27T08:24:16.428Z,24.10
2019-06-27T08:25:22.633Z,24.10
2019-06-27T08:26:27.730Z,24.20
2019-06-27T08:27:33.731Z,24.20
2019-06-27T08:28:38.824Z,24.20
2019-06-27T08:29:44.982Z,24.30
2019-06-27T08:30:50.439Z,24.30
2019-06-27T08:31:56.717Z,24.30
2019-06-27T08:33:01.908Z,24.40
2019-06-27T08:34:07.831Z,24.40
2019-06-27T08:35:13.051Z,24.50
2019-06-27T08:36:19.064Z,24.50
2019-06-27T08:37:24.069Z,24.50
2019-06-27T08:38:30.296Z,24.60
2019-06-27T08:39:35.900Z,24.70
2019-06-27T08:40:41.802Z,24.70
2019-06-27T08:41:47.707Z,24.80
2019-06-27T08:42:54.238Z,24.80
2019-06-27T08:43:59.835Z,24.90
2019-06-27T08:45:07.043Z,24.90
2019-06-27T08:46:12.147Z,24.90
2019-06-27T08:47:18.273Z,25.00
2019-06-27T08:48:23.371Z,25.00
2019-06-27T08:49:29.836Z,25.10
2019-06-27T08:50:35.087Z,25.20
2019-06-27T08:51:40.955Z,25.20
2019-06-27T08:52:46.435Z,25.20
2019-06-27T08:53:52.926Z,25.30
2019-06-27T08:54:58.636Z,25.30
2019-06-27T08:56:06.195Z,25.40
2019-06-27T08:57:11.756Z,25.40
2019-06-27T08:58:18.340Z,25.40
2019-06-27T08:59:23.771Z,25.50
2019-06-27T09:00:29.648Z,25.50
2019-06-27T09:01:34.987Z,25.60
2019-06-27T09:02:41.636Z,25.60
2019-06-27T09:03:47.387Z,25.70
2019-06-27T09:04:54.226Z,25.70
2019-06-27T09:05:59.985Z,25.80
2019-06-27T09:07:06.283Z,25.80
2019-06-27T09:08:11.746Z,25.80
2019-06-27T09:09:18.258Z,25.90
2019-06-27T09:10:23.946Z,25.90
2019-06-27T09:11:33.875Z,26.00
2019-06-27T09:12:37.769Z,26.00
2019-06-27T09:13:44.083Z,26.10
2019-06-27T09:14:49.783Z,26.10
2019-06-27T09:15:56.209Z,26.10
2019-06-27T09:17:01.876Z,26.20
2019-06-27T09:18:07.923Z,26.20
2019-06-27T09:19:13.107Z,26.30
2019-06-27T09:20:20.251Z,26.30
2019-06-27T09:21:25.929Z,26.30
2019-06-27T09:22:32.376Z,26.40
2019-06-27T09:23:37.756Z,26.40
2019-06-27T09:24:43.859Z,26.50
2019-06-27T09:25:49.035Z,26.50
2019-06-27T09:26:55.269Z,26.50
2019-06-27T09:28:00.983Z,26.50
2019-06-27T09:29:07.331Z,26.60
2019-06-27T09:30:13.449Z,26.60
2019-06-27T09:31:19.890Z,26.60
2019-06-27T09:32:26.539Z,26.70
2019-06-27T09:33:32.695Z,26.70
2019-06-27T09:34:38.484Z,26.80
2019-06-27T09:35:44.353Z,26.80
2019-06-27T09:36:49.366Z,26.90
2019-06-27T09:37:55.591Z,26.90
2019-06-27T09:39:01.107Z,26.90
2019-06-27T09:40:08.335Z,26.90
2019-06-27T09:41:13.930Z,26.90
2019-06-27T09:42:20.173Z,27.00
2019-06-27T09:43:25.842Z,27.10
2019-06-27T09:44:31.797Z,27.10
2019-06-27T09:45:37.327Z,27.10
2019-06-27T09:46:43.529Z,27.10
2019-06-27T09:47:48.964Z,27.20
2019-06-27T09:48:55.122Z,27.20
2019-06-27T09:50:00.615Z,27.20
2019-06-27T09:51:06.946Z,27.30
2019-06-27T09:52:11.976Z,27.30
2019-06-27T09:53:18.072Z,27.30
2019-06-27T09:54:23.504Z,27.30
2019-06-27T09:55:30.025Z,27.40
2019-06-27T09:56:35.226Z,27.40
2019-06-27T09:57:41.519Z,27.40
2019-06-27T09:58:46.935Z,27.50
2019-06-27T09:59:52.852Z,27.50
2019-06-27T10:00:58.081Z,27.60
2019-06-27T10:02:04.006Z,27.60
2019-06-27T10:03:09.175Z,27.60
2019-06-27T10:04:14.936Z,27.60
2019-06-27T10:05:20.119Z,27.70
2019-06-27T10:06:26.492Z,27.70
2019-06-27T10:07:31.723Z,27.80
2019-06-27T10:08:37.633Z,27.70
2019-06-27T10:09:43.528Z,27.80
2019-06-27T10:10:50.819Z,27.80
2019-06-27T10:11:55.853Z,27.80
2019-06-27T10:13:01.962Z,27.90
2019-06-27T10:14:07.724Z,27.90
2019-06-27T10:15:13.952Z,27.90
2019-06-27T10:16:19.346Z,28.00
2019-06-27T10:17:25.750Z,28.00
2019-06-27T10:18:30.770Z,28.10
2019-06-27T10:19:37.174Z,28.10
2019-06-27T10:20:42.607Z,28.10
2019-06-27T10:21:48.494Z,28.10
2019-06-27T10:22:53.838Z,28.20
2019-06-27T10:23:59.837Z,28.20
2019-06-27T10:25:05.975Z,28.30
2019-06-27T10:26:12.216Z,28.40
2019-06-27T10:27:17.346Z,28.30
2019-06-27T10:28:23.381Z,28.40
2019-06-27T10:29:28.735Z,28.40
2019-06-27T10:30:35.123Z,28.40
2019-06-27T10:31:40.569Z,28.40
2019-06-27T10:32:58.339Z,28.50
2019-06-27T10:33:54.277Z,28.50
2019-06-27T10:35:00.190Z,28.60
2019-06-27T10:36:05.309Z,28.50
2019-06-27T10:37:11.193Z,28.60
2019-06-27T10:38:16.917Z,28.60
2019-06-27T10:39:23.936Z,28.60
2019-06-27T10:40:29.176Z,28.70
2019-06-27T10:41:35.224Z,28.60
2019-06-27T10:42:40.442Z,28.70
2019-06-27T10:43:46.396Z,28.70
2019-06-27T10:44:51.510Z,28.70
2019-06-27T10:45:57.778Z,28.70
2019-06-27T10:47:03.560Z,28.80
2019-06-27T10:48:09.533Z,28.80
2019-06-27T10:49:14.560Z,28.90
2019-06-27T10:50:20.911Z,28.90
2019-06-27T10:51:26.085Z,28.90
2019-06-27T10:52:32.440Z,28.90
2019-06-27T10:53:38.435Z,29.00
2019-06-27T10:54:44.489Z,29.00
2019-06-27T10:55:49.689Z,29.00
2019-06-27T10:56:56.208Z,29.00
2019-06-27T10:58:01.155Z,29.10
2019-06-27T10:59:07.119Z,29.10
2019-06-27T11:00:12.794Z,29.10
2019-06-27T11:01:18.872Z,29.10
2019-06-27T11:02:24.703Z,29.20
2019-06-27T11:03:30.833Z,29.20
2019-06-27T11:04:36.500Z,29.20
2019-06-27T11:05:42.791Z,29.20
2019-06-27T11:06:47.822Z,29.30
2019-06-27T11:07:53.985Z,29.30
2019-06-27T11:08:59.310Z,29.30
2019-06-27T11:10:06.190Z,29.40
2019-06-27T11:11:11.378Z,29.40
2019-06-27T11:12:17.199Z,29.40
2019-06-27T11:13:22.619Z,29.40
2019-06-27T11:14:28.598Z,29.40
2019-06-27T11:15:33.635Z,29.50
2019-06-27T11:16:40.135Z,29.50
2019-06-27T11:17:45.243Z,29.50
2019-06-27T11:18:52.122Z,29.60
2019-06-27T11:19:57.288Z,29.60
2019-06-27T11:21:03.289Z,29.60
2019-06-27T11:22:09.053Z,29.60
2019-06-27T11:23:15.375Z,29.60
2019-06-27T11:24:20.390Z,29.70
2019-06-27T11:25:26.291Z,29.70
2019-06-27T11:26:31.925Z,29.70
2019-06-27T11:27:38.469Z,29.80
2019-06-27T11:28:43.603Z,29.80
2019-06-27T11:29:49.639Z,29.80
2019-06-27T11:30:54.750Z,29.90
2019-06-27T11:32:00.650Z,29.90
2019-06-27T11:33:05.843Z,29.90
2019-06-27T11:34:11.889Z,30.00
2019-06-27T11:35:17.756Z,30.00
2019-06-27T11:36:23.726Z,30.10
2019-06-27T11:37:29.574Z,30.10
2019-06-27T11:38:35.844Z,30.10
2019-06-27T11:39:41.673Z,30.20
2019-06-27T11:40:48.031Z,30.20
2019-06-27T11:41:53.841Z,30.20
2019-06-27T11:43:00.033Z,30.20
2019-06-27T11:44:05.403Z,30.30
2019-06-27T11:45:13.132Z,30.30
2019-06-27T11:46:18.281Z,30.40
2019-06-27T11:47:24.568Z,30.40
2019-06-27T11:48:30.101Z,30.40
2019-06-27T11:49:36.797Z,30.50
2019-06-27T11:50:42.373Z,30.50
2019-06-27T11:51:48.673Z,30.50
2019-06-27T11:52:54.470Z,30.60
2019-06-27T11:54:00.751Z,30.60
2019-06-27T11:55:06.019Z,30.60
2019-06-27T11:56:12.594Z,30.60
2019-06-27T11:57:18.118Z,30.70
2019-06-27T11:58:24.379Z,30.70
2019-06-27T11:59:30.330Z,30.70
2019-06-27T12:00:36.365Z,30.80
2019-06-27T12:01:41.811Z,30.80
2019-06-27T12:02:47.823Z,30.80
2019-06-27T12:03:53.006Z,30.80
2019-06-27T12:04:59.137Z,30.80
2019-06-27T12:06:05.117Z,30.80
2019-06-27T12:07:11.294Z,30.90
2019-06-27T12:08:16.889Z,30.90
2019-06-27T12:09:23.095Z,30.90
2019-06-27T12:10:28.601Z,30.90
2019-06-27T12:11:35.663Z,31.00
2019-06-27T12:12:41.729Z,31.00
2019-06-27T12:13:48.327Z,31.10
2019-06-27T12:14:53.874Z,31.00
2019-06-27T12:16:00.369Z,31.10
2019-06-27T12:17:05.736Z,31.10
2019-06-27T12:18:12.259Z,31.10
2019-06-27T12:19:17.764Z,31.20
2019-06-27T12:20:24.058Z,31.20
2019-06-27T12:21:29.536Z,31.20
2019-06-27T12:22:35.819Z,31.20
2019-06-27T12:23:40.952Z,31.30
2019-06-27T12:24:47.147Z,31.30
2019-06-27T12:25:52.675Z,31.30
2019-06-27T12:26:59.367Z,31.30
2019-06-27T12:28:04.915Z,31.30
2019-06-27T12:29:11.416Z,31.40
2019-06-27T12:30:17.584Z,31.40
2019-06-27T12:31:23.813Z,31.40
2019-06-27T12:32:29.621Z,31.40
2019-06-27T12:33:36.100Z,31.50
2019-06-27T12:34:41.271Z,31.50
2019-06-27T12:35:47.758Z,31.50
2019-06-27T12:36:53.024Z,31.50
2019-06-27T12:37:59.628Z,31.60
2019-06-27T12:39:05.354Z,31.60
2019-06-27T12:40:11.800Z,31.60
2019-06-27T12:41:17.263Z,31.60
2019-06-27T12:42:32.349Z,31.60
2019-06-27T12:43:31.766Z,31.70
2019-06-27T12:44:37.816Z,31.70
2019-06-27T12:45:43.009Z,31.70
2019-06-27T12:46:49.023Z,31.70
2019-06-27T12:47:54.532Z,31.80
2019-06-27T12:49:00.445Z,31.80
2019-06-27T12:50:06.176Z,31.80
2019-06-27T12:51:12.818Z,31.80
2019-06-27T12:52:18.020Z,31.80
2019-06-27T12:53:24.596Z,31.80
2019-06-27T12:54:30.119Z,31.90
2019-06-27T12:55:36.473Z,31.90
2019-06-27T12:56:42.026Z,31.90
2019-06-27T12:57:48.365Z,31.90
2019-06-27T12:58:53.872Z,31.90
2019-06-27T13:00:01.061Z,31.90
2019-06-27T13:01:06.304Z,32.00
2019-06-27T13:02:13.387Z,31.90
2019-06-27T13:03:19.277Z,31.90
2019-06-27T13:04:25.552Z,31.90
2019-06-27T13:05:30.679Z,32.00
2019-06-27T13:06:36.904Z,32.00
2019-06-27T13:07:42.490Z,32.00
2019-06-27T13:08:48.303Z,32.00
2019-06-27T13:09:53.739Z,32.00
2019-06-27T13:10:59.984Z,32.00
2019-06-27T13:12:05.687Z,32.00
2019-06-27T13:13:11.665Z,32.00
2019-06-27T13:14:17.091Z,32.00
2019-06-27T13:15:23.327Z,32.00
2019-06-27T13:16:30.984Z,32.10
2019-06-27T13:17:36.935Z,32.10
2019-06-27T13:18:42.785Z,32.10
2019-06-27T13:19:49.894Z,32.20
2019-06-27T13:20:58.539Z,32.20
2019-06-27T13:22:03.218Z,32.20
2019-06-27T13:23:08.457Z,32.20
2019-06-27T13:24:14.347Z,32.20
2019-06-27T13:25:19.555Z,32.20
2019-06-27T13:26:25.498Z,32.20
2019-06-27T13:27:31.423Z,32.20
2019-06-27T13:28:37.268Z,32.20
2019-06-27T13:29:42.875Z,32.20
2019-06-27T13:30:49.186Z,32.30
2019-06-27T13:31:54.627Z,32.30
2019-06-27T13:33:00.908Z,32.30
2019-06-27T13:34:06.906Z,32.30
2019-06-27T13:35:13.224Z,32.30
2019-06-27T13:36:18.582Z,32.30
2019-06-27T13:37:24.524Z,32.40
2019-06-27T13:38:30.431Z,32.40
2019-06-27T13:39:36.774Z,32.40
2019-06-27T13:40:42.222Z,32.40
2019-06-27T13:41:48.396Z,32.50
2019-06-27T13:42:55.612Z,32.40
2019-06-27T13:44:02.643Z,32.50
2019-06-27T13:45:08.784Z,32.50
2019-06-27T13:46:15.399Z,32.50
2019-06-27T13:47:20.918Z,32.50
2019-06-27T13:48:27.483Z,32.50
2019-06-27T13:49:32.943Z,32.60
2019-06-27T13:50:39.347Z,32.60
2019-06-27T13:51:45.736Z,32.60
2019-06-27T13:52:54.615Z,32.60
2019-06-27T13:53:58.914Z,32.60
2019-06-27T13:55:05.253Z,32.60
2019-06-27T13:56:10.394Z,32.70
2019-06-27T13:57:16.658Z,32.70
2019-06-27T13:58:22.230Z,32.70
2019-06-27T13:59:28.508Z,32.70
2019-06-27T14:00:45.543Z,32.70
2019-06-27T14:01:51.567Z,32.70
2019-06-27T14:02:58.308Z,32.70
2019-06-27T14:04:07.422Z,32.70
2019-06-27T14:05:12.667Z,32.70
2019-06-27T14:06:18.580Z,32.70
2019-06-27T14:07:23.753Z,32.70
2019-06-27T14:08:30.538Z,32.70
2019-06-27T14:09:51.101Z,32.70